sensor_id;sensor_type;location;lat;lon;timestamp;P1;durP1;ratioP1;P2;durP2;ratioP2
20621;SDS011;10470;42.670;23.354;2023-02-28T00:00:07;24.90;;;14.43;;
20621;SDS011;10470;42.670;23.354;2023-02-28T00:02:35;24.87;;;15.30;;
20621;SDS011;10470;42.670;23.354;2023-02-28T00:05:02;25.50;;;14.47;;
20621;SDS011;10470;42.670;23.354;2023-02-28T00:07:29;26.17;;;13.97;;
20621;SDS011;10470;42.670;23.354;2023-02-28T00:09:55;24.07;;;14.23;;
20621;SDS011;10470;42.670;23.354;2023-02-28T00:12:21;26.27;;;14.27;;
20621;SDS011;10470;42.670;23.354;2023-02-28T00:14:46;25.50;;;14.97;;
20621;SDS011;10470;42.670;23.354;2023-02-28T00:17:12;25.53;;;14.93;;
20621;SDS011;10470;42.670;23.354;2023-02-28T00:19:37;28.53;;;14.60;;
20621;SDS011;10470;42.670;23.354;2023-02-28T00:22:03;27.57;;;15.07;;
20621;SDS011;10470;42.670;23.354;2023-02-28T00:24:28;28.33;;;16.27;;
20621;SDS011;10470;42.670;23.354;2023-02-28T00:26:54;26.90;;;15.40;;
20621;SDS011;10470;42.670;23.354;2023-02-28T00:29:19;27.87;;;16.67;;
20621;SDS011;10470;42.670;23.354;2023-02-28T00:31:45;26.97;;;15.97;;
20621;SDS011;10470;42.670;23.354;2023-02-28T00:34:10;25.70;;;15.80;;
20621;SDS011;10470;42.670;23.354;2023-02-28T00:36:36;29.47;;;16.03;;
20621;SDS011;10470;42.670;23.354;2023-02-28T00:39:01;27.73;;;15.67;;
20621;SDS011;10470;42.670;23.354;2023-02-28T00:41:27;27.37;;;16.63;;
20621;SDS011;10470;42.670;23.354;2023-02-28T00:43:52;28.20;;;15.83;;
20621;SDS011;10470;42.670;23.354;2023-02-28T00:46:17;31.93;;;16.80;;
20621;SDS011;10470;42.670;23.354;2023-02-28T00:48:43;31.60;;;16.37;;
20621;SDS011;10470;42.670;23.354;2023-02-28T00:51:08;27.43;;;15.30;;
20621;SDS011;10470;42.670;23.354;2023-02-28T00:53:34;26.97;;;15.17;;
20621;SDS011;10470;42.670;23.354;2023-02-28T00:55:59;27.90;;;16.17;;
20621;SDS011;10470;42.670;23.354;2023-02-28T00:58:25;30.67;;;16.53;;
20621;SDS011;10470;42.670;23.354;2023-02-28T01:00:52;33.83;;;17.17;;
20621;SDS011;10470;42.670;23.354;2023-02-28T01:03:18;30.20;;;17.10;;
20621;SDS011;10470;42.670;23.354;2023-02-28T01:05:45;28.53;;;16.57;;
20621;SDS011;10470;42.670;23.354;2023-02-28T01:08:11;33.40;;;17.87;;
20621;SDS011;10470;42.670;23.354;2023-02-28T01:10:37;31.90;;;18.10;;
20621;SDS011;10470;42.670;23.354;2023-02-28T01:13:03;33.63;;;19.33;;
20621;SDS011;10470;42.670;23.354;2023-02-28T01:15:29;35.90;;;19.97;;
20621;SDS011;10470;42.670;23.354;2023-02-28T01:17:57;34.17;;;19.33;;
20621;SDS011;10470;42.670;23.354;2023-02-28T01:20:22;33.77;;;18.60;;
20621;SDS011;10470;42.670;23.354;2023-02-28T01:22:48;34.03;;;19.37;;
20621;SDS011;10470;42.670;23.354;2023-02-28T01:25:13;33.13;;;19.07;;
20621;SDS011;10470;42.670;23.354;2023-02-28T01:27:39;35.13;;;19.57;;
20621;SDS011;10470;42.670;23.354;2023-02-28T01:30:05;34.63;;;19.67;;
20621;SDS011;10470;42.670;23.354;2023-02-28T01:32:32;32.77;;;18.13;;
20621;SDS011;10470;42.670;23.354;2023-02-28T01:34:57;29.53;;;17.77;;
20621;SDS011;10470;42.670;23.354;2023-02-28T01:37:23;33.13;;;19.27;;
20621;SDS011;10470;42.670;23.354;2023-02-28T01:39:48;33.10;;;19.40;;
20621;SDS011;10470;42.670;23.354;2023-02-28T01:42:14;34.97;;;19.70;;
20621;SDS011;10470;42.670;23.354;2023-02-28T01:44:59;37.17;;;19.17;;
20621;SDS011;10470;42.670;23.354;2023-02-28T01:47:27;37.30;;;19.77;;
20621;SDS011;10470;42.670;23.354;2023-02-28T01:50:07;37.27;;;20.00;;
20621;SDS011;10470;42.670;23.354;2023-02-28T01:52:37;32.37;;;18.13;;
20621;SDS011;10470;42.670;23.354;2023-02-28T01:55:03;32.77;;;18.63;;
20621;SDS011;10470;42.670;23.354;2023-02-28T01:57:32;35.00;;;18.70;;
20621;SDS011;10470;42.670;23.354;2023-02-28T02:00:13;32.93;;;19.30;;
20621;SDS011;10470;42.670;23.354;2023-02-28T02:02:41;33.13;;;18.67;;
20621;SDS011;10470;42.670;23.354;2023-02-28T02:05:11;31.93;;;18.37;;
20621;SDS011;10470;42.670;23.354;2023-02-28T02:07:39;36.93;;;18.30;;
20621;SDS011;10470;42.670;23.354;2023-02-28T02:15:31;35.07;;;18.57;;
20621;SDS011;10470;42.670;23.354;2023-02-28T02:29:54;33.43;;;17.93;;
20621;SDS011;10470;42.670;23.354;2023-02-28T02:34:56;34.57;;;19.47;;
20621;SDS011;10470;42.670;23.354;2023-02-28T02:37:42;35.73;;;19.53;;
20621;SDS011;10470;42.670;23.354;2023-02-28T02:40:13;34.40;;;18.90;;
20621;SDS011;10470;42.670;23.354;2023-02-28T02:45:30;39.13;;;20.67;;
20621;SDS011;10470;42.670;23.354;2023-02-28T02:48:01;38.03;;;20.77;;
20621;SDS011;10470;42.670;23.354;2023-02-28T02:50:33;39.43;;;20.30;;
20621;SDS011;10470;42.670;23.354;2023-02-28T02:53:03;40.60;;;20.63;;
20621;SDS011;10470;42.670;23.354;2023-02-28T02:55:31;43.03;;;21.93;;
20621;SDS011;10470;42.670;23.354;2023-02-28T02:58:03;45.47;;;22.30;;
20621;SDS011;10470;42.670;23.354;2023-02-28T03:00:34;42.10;;;22.67;;
20621;SDS011;10470;42.670;23.354;2023-02-28T03:03:07;43.97;;;22.13;;
20621;SDS011;10470;42.670;23.354;2023-02-28T03:05:39;43.70;;;22.37;;
20621;SDS011;10470;42.670;23.354;2023-02-28T03:08:10;46.17;;;22.27;;
20621;SDS011;10470;42.670;23.354;2023-02-28T03:13:23;48.43;;;24.27;;
20621;SDS011;10470;42.670;23.354;2023-02-28T03:18:50;45.60;;;22.17;;
20621;SDS011;10470;42.670;23.354;2023-02-28T03:26:55;46.27;;;23.43;;
20621;SDS011;10470;42.670;23.354;2023-02-28T03:29:40;48.40;;;23.33;;
20621;SDS011;10470;42.670;23.354;2023-02-28T03:32:26;47.17;;;23.53;;
20621;SDS011;10470;42.670;23.354;2023-02-28T03:35:09;45.37;;;22.33;;
20621;SDS011;10470;42.670;23.354;2023-02-28T03:37:37;44.70;;;23.00;;
20621;SDS011;10470;42.670;23.354;2023-02-28T03:40:13;44.43;;;22.37;;
20621;SDS011;10470;42.670;23.354;2023-02-28T03:42:43;44.80;;;22.27;;
20621;SDS011;10470;42.670;23.354;2023-02-28T03:45:32;47.83;;;24.17;;
20621;SDS011;10470;42.670;23.354;2023-02-28T03:50:57;48.80;;;23.13;;
20621;SDS011;10470;42.670;23.354;2023-02-28T03:53:29;50.37;;;25.03;;
20621;SDS011;10470;42.670;23.354;2023-02-28T03:56:00;57.70;;;26.53;;
20621;SDS011;10470;42.670;23.354;2023-02-28T03:58:35;56.73;;;26.70;;
20621;SDS011;10470;42.670;23.354;2023-02-28T04:03:35;50.77;;;25.03;;
20621;SDS011;10470;42.670;23.354;2023-02-28T04:06:02;49.73;;;24.60;;
20621;SDS011;10470;42.670;23.354;2023-02-28T04:08:28;53.30;;;24.60;;
20621;SDS011;10470;42.670;23.354;2023-02-28T04:11:54;55.63;;;24.90;;
20621;SDS011;10470;42.670;23.354;2023-02-28T04:13:48;50.07;;;22.83;;
20621;SDS011;10470;42.670;23.354;2023-02-28T04:16:14;47.30;;;23.17;;
20621;SDS011;10470;42.670;23.354;2023-02-28T04:18:41;44.17;;;22.23;;
20621;SDS011;10470;42.670;23.354;2023-02-28T04:21:10;40.83;;;20.07;;
20621;SDS011;10470;42.670;23.354;2023-02-28T04:23:36;43.40;;;21.07;;
20621;SDS011;10470;42.670;23.354;2023-02-28T04:26:02;41.30;;;20.80;;
20621;SDS011;10470;42.670;23.354;2023-02-28T04:28:27;42.70;;;19.63;;
20621;SDS011;10470;42.670;23.354;2023-02-28T04:30:56;43.90;;;21.23;;
20621;SDS011;10470;42.670;23.354;2023-02-28T04:33:23;39.30;;;20.07;;
20621;SDS011;10470;42.670;23.354;2023-02-28T04:35:57;50.00;;;22.97;;
20621;SDS011;10470;42.670;23.354;2023-02-28T04:38:27;47.17;;;22.00;;
20621;SDS011;10470;42.670;23.354;2023-02-28T04:40:56;41.73;;;20.40;;
20621;SDS011;10470;42.670;23.354;2023-02-28T04:43:22;55.57;;;22.93;;
20621;SDS011;10470;42.670;23.354;2023-02-28T04:45:48;51.13;;;22.90;;
20621;SDS011;10470;42.670;23.354;2023-02-28T04:48:13;51.60;;;23.67;;
20621;SDS011;10470;42.670;23.354;2023-02-28T04:50:39;58.33;;;27.83;;
20621;SDS011;10470;42.670;23.354;2023-02-28T04:53:04;61.07;;;24.97;;
20621;SDS011;10470;42.670;23.354;2023-02-28T04:55:29;60.40;;;24.73;;
20621;SDS011;10470;42.670;23.354;2023-02-28T04:57:55;62.87;;;25.83;;
20621;SDS011;10470;42.670;23.354;2023-02-28T05:00:20;63.90;;;26.70;;
20621;SDS011;10470;42.670;23.354;2023-02-28T05:02:46;59.73;;;25.50;;
20621;SDS011;10470;42.670;23.354;2023-02-28T05:05:11;61.23;;;27.63;;
20621;SDS011;10470;42.670;23.354;2023-02-28T05:07:43;61.47;;;27.10;;
20621;SDS011;10470;42.670;23.354;2023-02-28T05:10:09;54.40;;;26.03;;
20621;SDS011;10470;42.670;23.354;2023-02-28T05:12:35;60.07;;;27.67;;
20621;SDS011;10470;42.670;23.354;2023-02-28T05:15:01;59.37;;;27.13;;
20621;SDS011;10470;42.670;23.354;2023-02-28T05:17:27;59.40;;;26.03;;
20621;SDS011;10470;42.670;23.354;2023-02-28T05:19:53;67.87;;;27.50;;
20621;SDS011;10470;42.670;23.354;2023-02-28T05:22:18;58.60;;;27.17;;
20621;SDS011;10470;42.670;23.354;2023-02-28T05:24:44;62.27;;;27.67;;
20621;SDS011;10470;42.670;23.354;2023-02-28T05:27:09;55.40;;;26.13;;
20621;SDS011;10470;42.670;23.354;2023-02-28T05:29:35;54.57;;;25.30;;
20621;SDS011;10470;42.670;23.354;2023-02-28T05:32:07;50.83;;;24.07;;
20621;SDS011;10470;42.670;23.354;2023-02-28T05:34:40;58.27;;;25.70;;
20621;SDS011;10470;42.670;23.354;2023-02-28T05:37:11;57.33;;;25.70;;
20621;SDS011;10470;42.670;23.354;2023-02-28T05:39:38;59.83;;;25.90;;
20621;SDS011;10470;42.670;23.354;2023-02-28T05:42:03;57.60;;;26.40;;
20621;SDS011;10470;42.670;23.354;2023-02-28T05:44:29;63.77;;;26.53;;
20621;SDS011;10470;42.670;23.354;2023-02-28T05:46:55;58.77;;;26.70;;
20621;SDS011;10470;42.670;23.354;2023-02-28T05:49:21;64.97;;;29.37;;
20621;SDS011;10470;42.670;23.354;2023-02-28T05:51:47;62.20;;;27.90;;
20621;SDS011;10470;42.670;23.354;2023-02-28T05:54:12;61.77;;;27.83;;
20621;SDS011;10470;42.670;23.354;2023-02-28T05:56:38;58.37;;;26.57;;
20621;SDS011;10470;42.670;23.354;2023-02-28T05:59:09;54.80;;;25.23;;
20621;SDS011;10470;42.670;23.354;2023-02-28T06:01:36;58.23;;;25.93;;
20621;SDS011;10470;42.670;23.354;2023-02-28T06:04:04;57.37;;;26.27;;
20621;SDS011;10470;42.670;23.354;2023-02-28T06:06:32;57.43;;;26.57;;
20621;SDS011;10470;42.670;23.354;2023-02-28T06:09:02;58.33;;;25.67;;
20621;SDS011;10470;42.670;23.354;2023-02-28T06:11:29;59.87;;;28.00;;
20621;SDS011;10470;42.670;23.354;2023-02-28T06:13:58;64.63;;;30.40;;
20621;SDS011;10470;42.670;23.354;2023-02-28T06:16:26;63.80;;;28.23;;
20621;SDS011;10470;42.670;23.354;2023-02-28T06:18:52;63.70;;;29.77;;
20621;SDS011;10470;42.670;23.354;2023-02-28T06:21:20;63.23;;;29.50;;
20621;SDS011;10470;42.670;23.354;2023-02-28T06:23:46;62.63;;;30.30;;
20621;SDS011;10470;42.670;23.354;2023-02-28T06:26:12;65.27;;;30.30;;
20621;SDS011;10470;42.670;23.354;2023-02-28T06:28:37;62.57;;;31.17;;
20621;SDS011;10470;42.670;23.354;2023-02-28T06:31:07;69.30;;;33.63;;
20621;SDS011;10470;42.670;23.354;2023-02-28T06:33:37;66.30;;;31.70;;
20621;SDS011;10470;42.670;23.354;2023-02-28T06:36:03;62.93;;;30.20;;
20621;SDS011;10470;42.670;23.354;2023-02-28T06:38:30;62.27;;;30.27;;
20621;SDS011;10470;42.670;23.354;2023-02-28T06:40:57;66.73;;;30.93;;
20621;SDS011;10470;42.670;23.354;2023-02-28T06:43:24;65.07;;;30.37;;
20621;SDS011;10470;42.670;23.354;2023-02-28T06:45:50;67.87;;;31.10;;
20621;SDS011;10470;42.670;23.354;2023-02-28T06:48:15;72.57;;;32.17;;
20621;SDS011;10470;42.670;23.354;2023-02-28T06:50:41;71.73;;;31.87;;
20621;SDS011;10470;42.670;23.354;2023-02-28T06:53:06;73.00;;;32.87;;
20621;SDS011;10470;42.670;23.354;2023-02-28T06:55:32;70.87;;;32.70;;
20621;SDS011;10470;42.670;23.354;2023-02-28T06:57:58;74.77;;;35.83;;
20621;SDS011;10470;42.670;23.354;2023-02-28T07:00:25;64.27;;;31.10;;
20621;SDS011;10470;42.670;23.354;2023-02-28T07:02:50;65.70;;;29.67;;
20621;SDS011;10470;42.670;23.354;2023-02-28T07:05:16;58.83;;;28.77;;
20621;SDS011;10470;42.670;23.354;2023-02-28T07:07:42;56.60;;;28.70;;
20621;SDS011;10470;42.670;23.354;2023-02-28T07:10:10;57.30;;;30.23;;
20621;SDS011;10470;42.670;23.354;2023-02-28T07:12:36;60.40;;;30.13;;
20621;SDS011;10470;42.670;23.354;2023-02-28T07:15:02;61.63;;;29.87;;
20621;SDS011;10470;42.670;23.354;2023-02-28T07:17:29;66.73;;;33.67;;
20621;SDS011;10470;42.670;23.354;2023-02-28T07:19:54;61.37;;;30.83;;
20621;SDS011;10470;42.670;23.354;2023-02-28T07:22:20;61.23;;;29.83;;
20621;SDS011;10470;42.670;23.354;2023-02-28T07:24:46;55.47;;;28.33;;
20621;SDS011;10470;42.670;23.354;2023-02-28T07:27:11;52.80;;;28.43;;
20621;SDS011;10470;42.670;23.354;2023-02-28T07:29:37;55.13;;;28.87;;
20621;SDS011;10470;42.670;23.354;2023-02-28T07:32:03;56.87;;;28.03;;
20621;SDS011;10470;42.670;23.354;2023-02-28T07:34:29;47.70;;;25.67;;
20621;SDS011;10470;42.670;23.354;2023-02-28T07:36:54;49.00;;;26.30;;
20621;SDS011;10470;42.670;23.354;2023-02-28T07:39:20;44.97;;;25.07;;
20621;SDS011;10470;42.670;23.354;2023-02-28T07:41:46;44.97;;;24.90;;
20621;SDS011;10470;42.670;23.354;2023-02-28T07:44:12;42.33;;;24.50;;
20621;SDS011;10470;42.670;23.354;2023-02-28T07:46:38;47.07;;;25.30;;
20621;SDS011;10470;42.670;23.354;2023-02-28T07:49:04;44.27;;;25.47;;
20621;SDS011;10470;42.670;23.354;2023-02-28T07:51:30;44.67;;;26.93;;
20621;SDS011;10470;42.670;23.354;2023-02-28T07:53:56;46.53;;;24.97;;
20621;SDS011;10470;42.670;23.354;2023-02-28T07:56:23;43.23;;;25.37;;
20621;SDS011;10470;42.670;23.354;2023-02-28T07:58:48;46.03;;;24.33;;
20621;SDS011;10470;42.670;23.354;2023-02-28T08:01:13;44.57;;;25.20;;
20621;SDS011;10470;42.670;23.354;2023-02-28T08:03:39;44.40;;;23.33;;
20621;SDS011;10470;42.670;23.354;2023-02-28T08:06:06;44.97;;;24.77;;
20621;SDS011;10470;42.670;23.354;2023-02-28T08:08:33;44.67;;;24.17;;
20621;SDS011;10470;42.670;23.354;2023-02-28T08:10:59;45.70;;;24.60;;
20621;SDS011;10470;42.670;23.354;2023-02-28T08:13:27;48.73;;;26.27;;
20621;SDS011;10470;42.670;23.354;2023-02-28T08:15:54;51.20;;;29.23;;
20621;SDS011;10470;42.670;23.354;2023-02-28T08:18:20;50.00;;;28.13;;
20621;SDS011;10470;42.670;23.354;2023-02-28T08:20:47;49.03;;;28.20;;
20621;SDS011;10470;42.670;23.354;2023-02-28T08:23:13;50.87;;;28.90;;
20621;SDS011;10470;42.670;23.354;2023-02-28T08:25:38;47.10;;;25.40;;
20621;SDS011;10470;42.670;23.354;2023-02-28T08:28:04;52.93;;;28.10;;
20621;SDS011;10470;42.670;23.354;2023-02-28T08:30:29;47.33;;;27.07;;
20621;SDS011;10470;42.670;23.354;2023-02-28T08:32:55;50.13;;;27.17;;
20621;SDS011;10470;42.670;23.354;2023-02-28T08:35:21;48.63;;;28.30;;
20621;SDS011;10470;42.670;23.354;2023-02-28T08:37:47;45.47;;;26.83;;
20621;SDS011;10470;42.670;23.354;2023-02-28T08:40:13;54.50;;;27.27;;
20621;SDS011;10470;42.670;23.354;2023-02-28T08:42:43;46.93;;;25.47;;
20621;SDS011;10470;42.670;23.354;2023-02-28T08:45:10;45.37;;;25.73;;
20621;SDS011;10470;42.670;23.354;2023-02-28T08:47:36;50.50;;;26.00;;
20621;SDS011;10470;42.670;23.354;2023-02-28T08:50:01;42.60;;;22.77;;
20621;SDS011;10470;42.670;23.354;2023-02-28T08:52:27;40.27;;;22.70;;
20621;SDS011;10470;42.670;23.354;2023-02-28T08:54:53;39.17;;;19.07;;
20621;SDS011;10470;42.670;23.354;2023-02-28T08:57:18;41.63;;;19.20;;
20621;SDS011;10470;42.670;23.354;2023-02-28T08:59:44;34.63;;;17.87;;
20621;SDS011;10470;42.670;23.354;2023-02-28T09:02:12;41.23;;;17.87;;
20621;SDS011;10470;42.670;23.354;2023-02-28T09:04:38;35.07;;;17.40;;
20621;SDS011;10470;42.670;23.354;2023-02-28T09:07:03;35.47;;;18.40;;
20621;SDS011;10470;42.670;23.354;2023-02-28T09:09:29;37.23;;;17.17;;
20621;SDS011;10470;42.670;23.354;2023-02-28T09:11:58;37.17;;;17.67;;
20621;SDS011;10470;42.670;23.354;2023-02-28T09:14:24;32.53;;;17.50;;
20621;SDS011;10470;42.670;23.354;2023-02-28T09:16:49;30.30;;;15.80;;
20621;SDS011;10470;42.670;23.354;2023-02-28T09:19:15;35.43;;;17.90;;
20621;SDS011;10470;42.670;23.354;2023-02-28T09:21:40;32.13;;;16.67;;
20621;SDS011;10470;42.670;23.354;2023-02-28T09:24:06;37.43;;;18.40;;
20621;SDS011;10470;42.670;23.354;2023-02-28T09:26:32;33.30;;;18.03;;
20621;SDS011;10470;42.670;23.354;2023-02-28T09:28:59;36.10;;;18.20;;
20621;SDS011;10470;42.670;23.354;2023-02-28T09:31:25;35.60;;;17.37;;
20621;SDS011;10470;42.670;23.354;2023-02-28T09:33:54;34.47;;;17.30;;
20621;SDS011;10470;42.670;23.354;2023-02-28T09:36:21;34.43;;;17.43;;
20621;SDS011;10470;42.670;23.354;2023-02-28T09:38:49;33.20;;;16.67;;
20621;SDS011;10470;42.670;23.354;2023-02-28T09:41:20;31.53;;;17.37;;
20621;SDS011;10470;42.670;23.354;2023-02-28T09:44:00;35.07;;;16.60;;
20621;SDS011;10470;42.670;23.354;2023-02-28T09:49:16;31.20;;;16.10;;
20621;SDS011;10470;42.670;23.354;2023-02-28T09:52:01;26.80;;;15.13;;
20621;SDS011;10470;42.670;23.354;2023-02-28T09:54:30;34.87;;;16.77;;
20621;SDS011;10470;42.670;23.354;2023-02-28T09:57:04;28.20;;;15.50;;
20621;SDS011;10470;42.670;23.354;2023-02-28T10:05:24;26.80;;;14.57;;
20621;SDS011;10470;42.670;23.354;2023-02-28T10:10:42;29.67;;;14.17;;
20621;SDS011;10470;42.670;23.354;2023-02-28T10:16:44;28.50;;;12.77;;
20621;SDS011;10470;42.670;23.354;2023-02-28T10:24:46;27.17;;;14.13;;
20621;SDS011;10470;42.670;23.354;2023-02-28T10:27:23;30.27;;;13.07;;
20621;SDS011;10470;42.670;23.354;2023-02-28T10:29:51;27.67;;;12.73;;
20621;SDS011;10470;42.670;23.354;2023-02-28T10:35:14;24.57;;;12.13;;
20621;SDS011;10470;42.670;23.354;2023-02-28T10:37:43;29.87;;;13.83;;
20621;SDS011;10470;42.670;23.354;2023-02-28T10:40:32;22.83;;;11.90;;
20621;SDS011;10470;42.670;23.354;2023-02-28T10:43:01;23.90;;;10.93;;
20621;SDS011;10470;42.670;23.354;2023-02-28T10:45:32;23.07;;;10.73;;
20621;SDS011;10470;42.670;23.354;2023-02-28T10:48:44;22.80;;;11.30;;
20621;SDS011;10470;42.670;23.354;2023-02-28T10:50:55;21.17;;;10.63;;
20621;SDS011;10470;42.670;23.354;2023-02-28T10:58:24;27.47;;;12.30;;
20621;SDS011;10470;42.670;23.354;2023-02-28T11:00:52;24.47;;;11.77;;
20621;SDS011;10470;42.670;23.354;2023-02-28T11:03:25;24.93;;;12.43;;
20621;SDS011;10470;42.670;23.354;2023-02-28T11:05:55;22.20;;;12.10;;
20621;SDS011;10470;42.670;23.354;2023-02-28T11:08:22;24.13;;;11.33;;
20621;SDS011;10470;42.670;23.354;2023-02-28T11:10:59;20.93;;;10.97;;
20621;SDS011;10470;42.670;23.354;2023-02-28T11:13:32;24.87;;;11.60;;
20621;SDS011;10470;42.670;23.354;2023-02-28T11:16:00;23.80;;;11.40;;
20621;SDS011;10470;42.670;23.354;2023-02-28T11:18:38;21.73;;;11.10;;
20621;SDS011;10470;42.670;23.354;2023-02-28T11:21:23;21.20;;;11.40;;
20621;SDS011;10470;42.670;23.354;2023-02-28T11:23:55;25.10;;;12.33;;
20621;SDS011;10470;42.670;23.354;2023-02-28T11:26:35;24.00;;;12.27;;
20621;SDS011;10470;42.670;23.354;2023-02-28T11:31:41;25.90;;;11.20;;
20621;SDS011;10470;42.670;23.354;2023-02-28T11:34:27;19.50;;;11.00;;
20621;SDS011;10470;42.670;23.354;2023-02-28T11:36:54;28.37;;;12.70;;
20621;SDS011;10470;42.670;23.354;2023-02-28T11:39:22;25.77;;;11.63;;
20621;SDS011;10470;42.670;23.354;2023-02-28T11:53:16;26.80;;;13.87;;
20621;SDS011;10470;42.670;23.354;2023-02-28T12:01:18;31.40;;;16.97;;
20621;SDS011;10470;42.670;23.354;2023-02-28T12:04:56;24.73;;;12.40;;
20621;SDS011;10470;42.670;23.354;2023-02-28T12:18:12;29.07;;;12.73;;
20621;SDS011;10470;42.670;23.354;2023-02-28T12:26:37;26.93;;;13.17;;
20621;SDS011;10470;42.670;23.354;2023-02-28T12:37:28;27.83;;;12.97;;
20621;SDS011;10470;42.670;23.354;2023-02-28T12:42:53;24.70;;;12.60;;
20621;SDS011;10470;42.670;23.354;2023-02-28T12:45:37;25.23;;;12.13;;
20621;SDS011;10470;42.670;23.354;2023-02-28T12:48:08;27.33;;;11.77;;
20621;SDS011;10470;42.670;23.354;2023-02-28T12:50:39;19.00;;;10.90;;
20621;SDS011;10470;42.670;23.354;2023-02-28T12:53:15;25.37;;;11.43;;
20621;SDS011;10470;42.670;23.354;2023-02-28T12:55:56;25.47;;;11.83;;
20621;SDS011;10470;42.670;23.354;2023-02-28T12:58:40;23.40;;;12.03;;
20621;SDS011;10470;42.670;23.354;2023-02-28T13:06:45;21.80;;;11.17;;
20621;SDS011;10470;42.670;23.354;2023-02-28T13:09:37;28.57;;;11.97;;
20621;SDS011;10470;42.670;23.354;2023-02-28T13:12:14;22.83;;;10.80;;
20621;SDS011;10470;42.670;23.354;2023-02-28T13:14:41;23.67;;;11.43;;
20621;SDS011;10470;42.670;23.354;2023-02-28T13:19:41;25.87;;;11.57;;
20621;SDS011;10470;42.670;23.354;2023-02-28T13:22:18;21.67;;;11.27;;
20621;SDS011;10470;42.670;23.354;2023-02-28T13:25:00;25.67;;;13.30;;
20621;SDS011;10470;42.670;23.354;2023-02-28T13:27:34;25.50;;;13.07;;
20621;SDS011;10470;42.670;23.354;2023-02-28T13:33:21;23.93;;;11.13;;
20621;SDS011;10470;42.670;23.354;2023-02-28T13:36:01;22.03;;;11.63;;
20621;SDS011;10470;42.670;23.354;2023-02-28T13:38:34;20.83;;;10.07;;
20621;SDS011;10470;42.670;23.354;2023-02-28T13:41:44;23.83;;;10.33;;
20621;SDS011;10470;42.670;23.354;2023-02-28T13:44:16;23.60;;;10.20;;
20621;SDS011;10470;42.670;23.354;2023-02-28T13:49:30;26.70;;;11.00;;
20621;SDS011;10470;42.670;23.354;2023-02-28T13:54:34;26.00;;;11.27;;
20621;SDS011;10470;42.670;23.354;2023-02-28T13:57:41;18.47;;;9.03;;
20621;SDS011;10470;42.670;23.354;2023-02-28T14:00:13;24.67;;;10.97;;
20621;SDS011;10470;42.670;23.354;2023-02-28T14:05:34;22.13;;;9.70;;
20621;SDS011;10470;42.670;23.354;2023-02-28T14:08:12;17.13;;;9.07;;
20621;SDS011;10470;42.670;23.354;2023-02-28T14:10:49;23.40;;;9.47;;
20621;SDS011;10470;42.670;23.354;2023-02-28T14:16:13;25.57;;;11.03;;
20621;SDS011;10470;42.670;23.354;2023-02-28T14:18:48;21.97;;;10.23;;
20621;SDS011;10470;42.670;23.354;2023-02-28T14:21:21;21.93;;;11.77;;
20621;SDS011;10470;42.670;23.354;2023-02-28T14:35:13;24.87;;;11.70;;
20621;SDS011;10470;42.670;23.354;2023-02-28T14:37:41;24.17;;;10.43;;
20621;SDS011;10470;42.670;23.354;2023-02-28T14:40:19;18.67;;;10.57;;
20621;SDS011;10470;42.670;23.354;2023-02-28T14:42:57;23.83;;;12.17;;
20621;SDS011;10470;42.670;23.354;2023-02-28T14:45:25;23.33;;;10.93;;
20621;SDS011;10470;42.670;23.354;2023-02-28T14:47:55;21.07;;;11.07;;
20621;SDS011;10470;42.670;23.354;2023-02-28T14:50:24;23.47;;;10.90;;
20621;SDS011;10470;42.670;23.354;2023-02-28T14:52:54;28.07;;;10.50;;
20621;SDS011;10470;42.670;23.354;2023-02-28T14:55:23;23.83;;;10.20;;
20621;SDS011;10470;42.670;23.354;2023-02-28T14:58:19;27.43;;;10.70;;
20621;SDS011;10470;42.670;23.354;2023-02-28T15:00:49;25.50;;;10.57;;
20621;SDS011;10470;42.670;23.354;2023-02-28T15:03:20;24.47;;;10.90;;
20621;SDS011;10470;42.670;23.354;2023-02-28T15:05:55;24.77;;;11.00;;
20621;SDS011;10470;42.670;23.354;2023-02-28T15:08:25;19.83;;;9.87;;
20621;SDS011;10470;42.670;23.354;2023-02-28T15:11:07;22.23;;;9.80;;
20621;SDS011;10470;42.670;23.354;2023-02-28T15:13:44;26.13;;;10.33;;
20621;SDS011;10470;42.670;23.354;2023-02-28T15:19:00;17.93;;;9.47;;
20621;SDS011;10470;42.670;23.354;2023-02-28T15:21:31;19.30;;;9.57;;
20621;SDS011;10470;42.670;23.354;2023-02-28T15:24:05;21.33;;;9.30;;
20621;SDS011;10470;42.670;23.354;2023-02-28T15:26:40;26.83;;;8.97;;
20621;SDS011;10470;42.670;23.354;2023-02-28T15:29:11;17.40;;;8.37;;
20621;SDS011;10470;42.670;23.354;2023-02-28T15:31:43;14.63;;;8.33;;
20621;SDS011;10470;42.670;23.354;2023-02-28T15:34:22;22.43;;;10.97;;
20621;SDS011;10470;42.670;23.354;2023-02-28T15:36:59;18.70;;;9.70;;
20621;SDS011;10470;42.670;23.354;2023-02-28T15:39:25;18.77;;;9.20;;
20621;SDS011;10470;42.670;23.354;2023-02-28T15:42:09;19.13;;;8.87;;
20621;SDS011;10470;42.670;23.354;2023-02-28T15:44:35;18.30;;;8.47;;
20621;SDS011;10470;42.670;23.354;2023-02-28T15:47:02;15.90;;;9.33;;
20621;SDS011;10470;42.670;23.354;2023-02-28T15:49:49;17.83;;;8.70;;
20621;SDS011;10470;42.670;23.354;2023-02-28T15:52:17;13.63;;;8.07;;
20621;SDS011;10470;42.670;23.354;2023-02-28T15:54:48;17.47;;;8.50;;
20621;SDS011;10470;42.670;23.354;2023-02-28T15:57:19;17.20;;;8.00;;
20621;SDS011;10470;42.670;23.354;2023-02-28T15:59:49;20.23;;;8.37;;
20621;SDS011;10470;42.670;23.354;2023-02-28T16:02:36;15.67;;;8.10;;
20621;SDS011;10470;42.670;23.354;2023-02-28T16:05:24;14.67;;;8.37;;
20621;SDS011;10470;42.670;23.354;2023-02-28T16:07:56;14.87;;;8.80;;
20621;SDS011;10470;42.670;23.354;2023-02-28T16:10:23;12.30;;;7.97;;
20621;SDS011;10470;42.670;23.354;2023-02-28T16:12:52;16.57;;;8.93;;
20621;SDS011;10470;42.670;23.354;2023-02-28T16:15:24;16.03;;;9.07;;
20621;SDS011;10470;42.670;23.354;2023-02-28T16:17:55;16.63;;;9.00;;
20621;SDS011;10470;42.670;23.354;2023-02-28T16:20:25;13.00;;;9.07;;
20621;SDS011;10470;42.670;23.354;2023-02-28T16:22:53;15.03;;;8.37;;
20621;SDS011;10470;42.670;23.354;2023-02-28T16:25:20;14.07;;;8.40;;
20621;SDS011;10470;42.670;23.354;2023-02-28T16:27:52;13.27;;;7.87;;
20621;SDS011;10470;42.670;23.354;2023-02-28T16:30:20;14.40;;;8.23;;
20621;SDS011;10470;42.670;23.354;2023-02-28T16:32:48;15.47;;;8.73;;
20621;SDS011;10470;42.670;23.354;2023-02-28T16:35:16;12.93;;;7.40;;
20621;SDS011;10470;42.670;23.354;2023-02-28T16:37:43;14.70;;;8.10;;
20621;SDS011;10470;42.670;23.354;2023-02-28T16:40:13;16.83;;;7.37;;
20621;SDS011;10470;42.670;23.354;2023-02-28T16:42:43;12.47;;;7.70;;
20621;SDS011;10470;42.670;23.354;2023-02-28T16:45:20;11.90;;;7.43;;
20621;SDS011;10470;42.670;23.354;2023-02-28T16:47:48;13.07;;;7.13;;
20621;SDS011;10470;42.670;23.354;2023-02-28T16:50:24;11.47;;;6.93;;
20621;SDS011;10470;42.670;23.354;2023-02-28T16:52:55;11.37;;;7.17;;
20621;SDS011;10470;42.670;23.354;2023-02-28T16:55:22;12.33;;;7.40;;
20621;SDS011;10470;42.670;23.354;2023-02-28T16:57:52;10.37;;;6.57;;